createdAt,value
2024-01-01T00:03:39.649Z,99013.03
2024-01-01T00:08:41.386Z,98948.25
2024-01-01T00:13:43.056Z,99079.22
2024-01-01T00:18:45.120Z,99018.41
2024-01-01T00:23:46.837Z,99062.09
2024-01-01T00:28:48.496Z,98911.63
2024-01-01T00:33:50.457Z,99067.25
2024-01-01T00:38:52.860Z,98904.19
2024-01-01T00:43:54.548Z,98955.63
2024-01-01T00:48:56.559Z,99091.13
2024-01-01T00:53:58.343Z,98995.59
2024-01-01T00:59:00.068Z,98895.00
2024-01-01T01:04:01.857Z,99070.94
2024-01-01T01:09:05.139Z,98987.69
2024-01-01T01:14:07.340Z,99037.63
2024-01-01T01:19:09.042Z,98896.56
2024-01-01T01:24:12.603Z,98888.94
2024-01-01T01:29:14.349Z,98967.16
2024-01-01T01:34:16.016Z,98935.50
2024-01-01T01:39:17.708Z,99169.16
2024-01-01T01:44:19.379Z,98949.66
2024-01-01T01:49:21.091Z,98991.34
2024-01-01T01:54:24.392Z,98983.44
2024-01-01T01:59:26.237Z,98948.22
2024-01-01T02:04:27.931Z,99019.25
2024-01-01T02:09:31.371Z,99040.91
2024-01-01T02:14:33.055Z,99020.72
2024-01-01T02:19:37.255Z,98999.88
2024-01-01T02:24:39.877Z,99017.91
2024-01-01T02:29:41.560Z,98966.69
2024-01-01T02:34:43.327Z,99010.09
2024-01-01T02:39:44.982Z,99150.97
2024-01-01T02:44:46.935Z,98901.97
2024-01-01T02:49:48.816Z,98957.03
2024-01-01T02:54:50.515Z,99047.59
2024-01-01T02:59:52.391Z,98966.94
2024-01-01T03:04:54.128Z,98995.78
2024-01-01T03:09:55.881Z,99129.03
2024-01-01T03:14:57.538Z,98905.59
2024-01-01T03:19:59.377Z,98963.81
2024-01-01T03:25:01.307Z,99129.16
2024-01-01T03:30:07.691Z,98977.47
2024-01-01T03:35:09.842Z,98958.97
2024-01-01T03:40:12.437Z,99013.88
2024-01-01T03:45:14.097Z,99171.06
2024-01-01T03:50:17.746Z,99016.50
2024-01-01T03:55:19.630Z,98926.13
2024-01-01T04:00:21.503Z,98998.06
2024-01-01T04:05:28.174Z,98857.44
2024-01-01T04:10:29.920Z,99081.31
2024-01-01T04:15:31.550Z,99132.47
2024-01-01T04:20:33.213Z,98954.97
2024-01-01T04:25:34.904Z,98959.97
2024-01-01T04:30:36.617Z,98903.81
2024-01-01T04:35:38.591Z,99118.91
2024-01-01T04:40:40.933Z,98955.81
2024-01-01T04:45:42.656Z,98964.66
2024-01-01T04:50:44.373Z,99017.84
2024-01-01T04:55:46.110Z,99082.66
2024-01-01T05:00:47.801Z,99188.78
2024-01-01T05:05:50.143Z,99121.06
2024-01-01T05:10:51.980Z,99156.81
2024-01-01T05:15:53.687Z,98934.88
2024-01-01T05:20:55.322Z,98984.25
2024-01-01T05:25:57.020Z,98965.34
2024-01-01T05:30:58.785Z,98935.22
2024-01-01T05:36:00.585Z,98963.44
2024-01-01T05:41:02.290Z,99054.88
2024-01-01T05:46:04.060Z,99063.53
2024-01-01T05:51:05.884Z,99048.09
2024-01-01T05:56:07.877Z,99219.94
2024-01-01T06:01:10.598Z,98969.78
2024-01-01T06:06:13.003Z,99123.91
2024-01-01T06:11:14.717Z,99223.28
2024-01-01T06:16:17.048Z,99164.19
2024-01-01T06:21:19.659Z,98981.00
2024-01-01T06:26:21.365Z,99095.44
2024-01-01T06:31:23.018Z,98984.31
2024-01-01T06:36:24.677Z,99003.16
2024-01-01T06:41:26.435Z,99048.88
2024-01-01T06:46:28.070Z,99012.44
2024-01-01T06:51:29.716Z,99000.63
2024-01-01T06:56:31.426Z,99100.63
2024-01-01T07:01:33.200Z,99107.09
2024-01-01T07:06:35.452Z,99106.06
2024-01-01T07:11:37.355Z,99091.78
2024-01-01T07:16:39.055Z,99334.69
2024-01-01T07:21:41.348Z,99139.03
2024-01-01T07:26:43.028Z,99245.81
2024-01-01T07:31:44.760Z,99120.13
2024-01-01T07:36:46.717Z,99089.16
2024-01-01T07:41:48.464Z,99302.63
2024-01-01T07:46:50.392Z,99074.47
2024-01-01T07:51:52.129Z,99081.03
2024-01-01T07:56:54.086Z,99251.63
2024-01-01T08:01:55.849Z,99194.75
2024-01-01T08:06:57.801Z,99193.81
2024-01-01T08:11:59.481Z,99253.59
2024-01-01T08:17:01.221Z,99156.44
2024-01-01T08:22:03.204Z,99253.63
2024-01-01T08:27:06.052Z,99418.06
2024-01-01T08:32:07.731Z,99178.66
2024-01-01T08:37:09.468Z,99322.41
2024-01-01T08:42:11.136Z,99178.59
2024-01-01T08:47:12.930Z,99306.59
2024-01-01T08:52:14.744Z,99321.34
2024-01-01T08:57:16.465Z,99350.00
2024-01-01T09:02:18.217Z,99385.22
2024-01-01T09:07:21.928Z,99150.63
2024-01-01T09:12:23.590Z,99244.25
2024-01-01T09:17:25.446Z,99151.31
2024-01-01T09:22:27.182Z,99146.56
2024-01-01T09:27:28.806Z,99087.06
2024-01-01T09:32:33.292Z,99250.81
2024-01-01T09:37:35.472Z,99170.25
2024-01-01T09:42:37.161Z,99285.16
2024-01-01T09:47:38.870Z,99175.31
2024-01-01T09:52:40.666Z,99246.25
2024-01-01T09:57:42.593Z,99260.44
2024-01-01T10:02:47.704Z,99321.16
2024-01-01T10:07:49.504Z,99237.94
2024-01-01T10:12:51.365Z,99357.50
2024-01-01T10:17:53.241Z,99174.66
2024-01-01T10:22:54.898Z,99228.78
2024-01-01T10:28:02.506Z,99237.06
2024-01-01T10:33:04.945Z,99271.09
2024-01-01T10:38:07.180Z,99203.25
2024-01-01T10:43:09.923Z,99302.31
2024-01-01T10:48:16.058Z,99324.38
2024-01-01T10:53:26.283Z,99257.28
2024-01-01T10:58:49.660Z,99226.97
2024-01-01T11:06:30.718Z,99221.13
2024-01-01T11:11:33.321Z,99244.50
2024-01-01T11:21:56.956Z,99173.50
2024-01-01T11:26:58.577Z,99207.50
2024-01-01T11:32:04.528Z,99356.03
2024-01-01T11:37:06.406Z,99329.81
2024-01-01T11:42:08.214Z,99143.81
2024-01-01T11:47:09.859Z,99226.78
2024-01-01T11:52:12.723Z,99259.47
2024-01-01T11:57:14.353Z,99255.41
2024-01-01T12:02:19.086Z,99166.88
2024-01-01T12:07:32.361Z,99223.97
2024-01-01T12:12:38.274Z,99306.50
2024-01-01T12:17:42.208Z,99298.06
2024-01-01T12:22:44.474Z,99293.91
2024-01-01T12:28:03.144Z,99348.69
2024-01-01T12:33:06.503Z,99202.88
2024-01-01T12:38:09.368Z,99276.06
2024-01-01T12:43:11.032Z,99199.56
2024-01-01T12:48:12.816Z,99368.75
2024-01-01T12:53:14.564Z,99269.91
2024-01-01T12:58:16.368Z,99309.19
2024-01-01T13:03:18.007Z,99353.94
2024-01-01T13:08:19.758Z,99354.50
2024-01-01T13:13:21.458Z,99380.13
2024-01-01T13:18:23.233Z,99290.72
2024-01-01T13:23:25.239Z,99327.66
2024-01-01T13:28:26.980Z,99346.53
2024-01-01T13:33:28.708Z,99205.78
2024-01-01T13:38:30.644Z,99303.97
2024-01-01T13:43:32.336Z,99328.09
2024-01-01T13:48:34.130Z,99186.09
2024-01-01T13:53:35.946Z,99304.31
2024-01-01T13:58:37.594Z,99372.34
2024-01-01T14:03:41.549Z,99282.72
2024-01-01T14:08:43.263Z,99267.59
2024-01-01T14:13:44.894Z,99241.50
2024-01-01T14:18:46.847Z,99423.56
2024-01-01T14:23:49.096Z,99301.09
2024-01-01T14:28:50.853Z,99363.03
2024-01-01T14:33:56.134Z,99347.22
2024-01-01T14:39:00.584Z,99412.28
2024-01-01T14:44:04.103Z,99337.13
2024-01-01T14:49:05.798Z,99306.81
2024-01-01T14:54:07.472Z,99391.66
2024-01-01T15:05:13.813Z,99268.69
2024-01-01T15:10:15.635Z,99370.13
2024-01-01T15:15:17.419Z,99373.59
2024-01-01T15:20:20.036Z,99428.44
2024-01-01T15:25:21.636Z,99260.88
2024-01-01T15:30:23.213Z,99305.03
2024-01-01T15:35:24.933Z,99189.44
2024-01-01T15:40:26.604Z,99250.31
2024-01-01T15:45:28.212Z,99421.31
2024-01-01T15:50:30.008Z,99345.50
2024-01-01T15:55:31.733Z,99263.84
2024-01-01T16:00:33.449Z,99291.56
2024-01-01T16:05:35.231Z,99511.25
2024-01-01T16:10:36.907Z,99334.91
2024-01-01T16:15:45.254Z,99265.56
2024-01-01T16:20:49.185Z,99534.47
2024-01-01T16:25:51.011Z,99248.03
2024-01-01T16:30:53.309Z,99392.66
2024-01-01T16:35:55.000Z,99373.34
2024-01-01T16:40:56.737Z,99263.25
2024-01-01T16:45:58.416Z,99447.50
2024-01-01T16:51:00.095Z,99266.78
2024-01-01T16:56:01.870Z,99240.59
2024-01-01T17:01:03.643Z,99304.66
2024-01-01T17:06:07.027Z,99284.00
2024-01-01T17:11:11.203Z,99487.00
2024-01-01T17:16:14.813Z,99285.03
2024-01-01T17:21:20.796Z,99337.31
2024-01-01T17:26:23.388Z,99396.78
2024-01-01T17:31:25.250Z,99366.44
2024-01-01T17:36:30.726Z,99303.28
2024-01-01T17:41:35.204Z,99499.81
2024-01-01T17:46:37.057Z,99320.59
2024-01-01T17:51:42.499Z,99371.13
2024-01-01T17:56:46.853Z,99379.28
2024-01-01T18:01:48.603Z,99351.56
2024-01-01T18:06:53.378Z,99326.81
2024-01-01T18:11:55.070Z,99300.38
2024-01-01T18:16:56.763Z,99261.78
2024-01-01T18:21:58.424Z,99202.19
2024-01-01T18:27:00.055Z,99247.31
2024-01-01T18:32:01.741Z,99235.84
2024-01-01T18:37:03.689Z,99268.28
2024-01-01T18:42:05.683Z,99263.22
2024-01-01T18:47:08.909Z,99317.97
2024-01-01T18:52:10.670Z,99163.53
2024-01-01T18:57:12.353Z,99335.69
2024-01-01T19:02:14.551Z,99229.00
2024-01-01T19:07:16.232Z,99379.81
2024-01-01T19:12:17.988Z,99228.66
2024-01-01T19:17:19.792Z,99344.03
2024-01-01T19:22:21.459Z,99273.13
2024-01-01T19:27:23.217Z,99192.50
2024-01-01T19:32:27.384Z,99227.22
2024-01-01T19:37:29.238Z,99177.31
2024-01-01T19:42:30.980Z,99248.56
2024-01-01T19:47:32.866Z,99238.22
2024-01-01T19:52:34.682Z,99194.25
2024-01-01T19:57:36.657Z,99221.38
2024-01-01T20:02:38.337Z,99154.47
2024-01-01T20:07:40.056Z,99133.53
2024-01-01T20:12:41.750Z,99327.63
2024-01-01T20:17:43.493Z,99268.47
2024-01-01T20:22:46.323Z,99301.78
2024-01-01T20:27:48.429Z,99411.63
2024-01-01T20:32:50.283Z,99196.66
2024-01-01T20:37:52.147Z,99197.69
2024-01-01T20:42:53.983Z,99274.00
2024-01-01T20:47:55.650Z,99169.31
2024-01-01T20:52:57.511Z,99209.47
2024-01-01T20:57:59.323Z,99126.84
2024-01-01T21:03:01.409Z,99035.03
2024-01-01T21:08:05.241Z,99039.13
2024-01-01T21:13:07.151Z,99196.09
2024-01-01T21:18:09.010Z,99201.94
2024-01-01T21:23:10.796Z,99055.63
2024-01-01T21:28:12.667Z,99270.09
2024-01-01T21:33:14.529Z,99009.22
2024-01-01T21:38:16.383Z,99200.00
2024-01-01T21:43:18.908Z,99175.59
2024-01-01T21:48:21.030Z,99072.63
2024-01-01T21:53:22.826Z,99151.56
2024-01-01T21:58:24.533Z,99056.06
2024-01-01T22:03:27.279Z,99260.88
2024-01-01T22:08:29.115Z,99149.69
2024-01-01T22:13:30.786Z,99133.13
2024-01-01T22:18:32.709Z,99247.28
2024-01-01T22:23:34.433Z,99096.44
2024-01-01T22:28:39.564Z,99205.66
2024-01-01T22:33:41.683Z,99089.69
2024-01-01T22:38:43.442Z,99071.38
2024-01-01T22:43:45.196Z,99271.34
2024-01-01T22:48:47.181Z,99032.97
2024-01-01T22:53:48.920Z,99024.00
2024-01-01T22:58:50.674Z,99107.41
2024-01-01T23:03:53.676Z,99007.41
2024-01-01T23:08:55.662Z,98974.63
2024-01-01T23:13:57.390Z,98977.50
2024-01-01T23:19:02.686Z,99011.91
2024-01-01T23:24:06.801Z,99045.28
2024-01-01T23:29:08.444Z,99213.47
2024-01-01T23:34:14.758Z,98971.72
2024-01-01T23:39:17.265Z,99076.59
2024-01-01T23:44:18.944Z,98986.63
2024-01-01T23:49:20.602Z,99044.97
2024-01-01T23:54:22.813Z,99076.09
2024-01-01T23:59:25.034Z,98984.59
